Nye, MT

3:09 PM MST on December 25, 2014 (GMT -0700)
Gallatin | Change Station
CLOSE
Current Station
Airport
Location: Bozeman,
Elevation: 4475 ft
Nearby Weather Stations

Elev 4475 ft 45.79 °N, 111.16 °W | Updated 13 minutes ago

Overcast
Overcast
24 °F
Feels Like 18 °F
N
5
Wind Variable Wind from NE

Today
High -- | Low -- °F
--% Chance of Precip.
Yesterday
High -- | Low -- °F
Precip. -- in
7:57 AM 4:41 PM
Waxing Crescent, 19% visible
Pressure 30.01 in
Visibility 10.0 miles
Clouds Clear
Windchill 18 °F
Dew Point 18 °F
Humidity 77%
Rainfall 0.15 in
Snow Depth Not available.
UV 1 out of 12
Pollen .10 out of 12
Air Quality Not available.
Flu Activity Not available.
METAR KBZN 252156Z 04004KT 10SM CLR M04/M08 A2989 RMK AO2 SLP160 T10441078

More Conditions Fewer Conditions

Pressure 30.01 in
Visibility 10.0 miles
Clouds Clear
Windchill 18 °F
Dew Point 18 °F
Humidity 77%
Rainfall 0.15 in
Snow Depth Not available.
UV 1 out of 12
Pollen .10 out of 12
Air Quality Not available.
Flu Activity Not available.
METAR KBZN 252156Z 04004KT 10SM CLR M04/M08 A2989 RMK AO2 SLP160 T10441078

More Conditions Fewer Conditions

10-Day Weather Forecast

Almanac

Astronomy

Dec. 25, 2014 Rise Set
Actual Time
Civil Twilight
Nautical Twilight
Astronomical Twilight
Moon
Length of Visible Light
Length of Day
Tomorrow will be .
, % of the Moon is Illuminated

Today's Extremes

State Highs State Lows

Community

WunderPhotos

Upload Photos

1,780,407 photos uploaded!

WunderBlogs® & News

Nearby

Air Quality

  Air Quality AQ Index Pollutant
Not available.

Snow Depth

Station Depth Elevation

Earthquake Activity

City Distance Mag. Time & Date
Minimum magnitude displayed is 2.5.

Coastal Water Temperatures

Place Temperature

Nearby Weather Stations